Time;durP1;ratioP1;P1;durP2;ratioP2;P2;SDS_P1;SDS_P2;PMS_P1;PMS_P2;Temp;Humidity;BMP_temperature;BMP_pressure;BME280_temperature;BME280_humidity;BME280_pressure;Samples;Min_cycle;Max_cycle;Signal;HPM_P1;HPM_P2
2021/12/20 00:00:38;;;;;;;2.90;2.57;;;;;;;5.20;64.56;99388.09;4971230;28;20316;-82
2021/12/20 00:03:05;;;;;;;2.47;2.27;;;;;;;5.18;64.42;99374.97;5005928;28;20230;-81
2021/12/20 00:05:42;;;;;;;3.17;2.80;;;;;;;5.23;64.70;99377.06;5004713;28;20239;-82
2021/12/20 00:08:13;;;;;;;4.50;2.90;;;;;;;5.18;63.97;99374.19;5021418;28;20254;-81
2021/12/20 00:10:42;;;;;;;2.83;2.40;;;;;;;5.28;63.92;99379.97;5025963;28;20253;-82
2021/12/20 00:13:16;;;;;;;3.10;2.80;;;;;;;5.33;64.27;99393.50;5019567;28;20226;-82
2021/12/20 00:15:45;;;;;;;2.53;2.30;;;;;;;5.40;63.96;99391.75;5004528;28;20223;-82
2021/12/20 00:18:13;;;;;;;3.10;2.50;;;;;;;5.45;63.80;99391.16;4989286;28;20243;-82
2021/12/20 00:20:40;;;;;;;3.00;2.70;;;;;;;5.30;64.42;99368.16;5004921;28;20304;-82
2021/12/20 00:23:08;;;;;;;2.93;2.30;;;;;;;5.33;64.19;99366.94;5023374;28;20246;-82
2021/12/20 00:25:35;;;;;;;3.03;2.50;;;;;;;5.35;63.68;99380.03;4991640;28;20254;-81
2021/12/20 00:28:04;;;;;;;3.07;2.63;;;;;;;5.23;64.63;99395.66;4987197;28;20226;-81
2021/12/20 00:30:33;;;;;;;2.83;2.57;;;;;;;5.38;64.25;99393.75;5022052;28;20238;-82
2021/12/20 00:33:08;;;;;;;3.53;2.80;;;;;;;5.35;64.29;99388.84;5023614;28;20187;-82
2021/12/20 00:35:37;;;;;;;2.77;2.43;;;;;;;5.29;64.44;99390.41;5075082;23;20247;-81
2021/12/20 00:41:04;;;;;;;2.83;2.20;;;;;;;5.38;63.51;99383.13;4972210;28;20258;-82
2021/12/20 00:43:34;;;;;;;3.27;2.73;;;;;;;5.43;63.56;99404.63;4986631;28;20258;-82
2021/12/20 00:46:01;;;;;;;3.50;2.83;;;;;;;5.41;63.89;99401.38;4988235;28;20274;-82
2021/12/20 00:48:28;;;;;;;3.70;2.47;;;;;;;5.38;63.92;99407.03;4988307;28;20379;-81
2021/12/20 00:50:58;;;;;;;3.73;2.97;;;;;;;5.36;64.25;99402.94;4972897;28;20238;-81
2021/12/20 00:53:29;;;;;;;4.63;3.23;;;;;;;5.36;64.57;99394.97;4984817;28;20236;-81
2021/12/20 00:56:20;;;;;;;3.60;3.00;;;;;;;5.48;64.26;99412.03;4998584;28;20224;-81
2021/12/20 00:58:50;;;;;;;3.87;2.87;;;;;;;5.42;64.43;99410.97;5005518;28;20215;-81
2021/12/20 01:01:17;;;;;;;3.57;3.10;;;;;;;5.43;64.03;99404.63;4986485;28;20295;-82
2021/12/20 01:03:45;;;;;;;2.97;2.60;;;;;;;5.49;64.29;99414.50;4986843;28;20533;-82
2021/12/20 01:06:18;;;;;;;3.27;2.63;;;;;;;5.42;64.25;99404.81;4972279;28;20227;-82
2021/12/20 01:08:52;;;;;;;3.83;2.93;;;;;;;5.39;64.57;99406.03;5004905;28;20227;-82
2021/12/20 01:11:25;;;;;;;4.20;3.37;;;;;;;5.42;64.15;99420.75;5000799;28;20235;-82
2021/12/20 01:13:54;;;;;;;3.87;3.20;;;;;;;5.46;65.21;99419.38;5004679;23;20238;-82
2021/12/20 01:16:31;;;;;;;3.47;3.17;;;;;;;5.41;65.10;99411.16;5010037;28;20195;-82
2021/12/20 01:19:02;;;;;;;3.67;3.07;;;;;;;5.38;65.16;99420.31;5022914;28;20519;-82
2021/12/20 01:21:30;;;;;;;5.90;3.60;;;;;;;5.33;65.92;99398.81;5003491;28;20250;-82
2021/12/20 01:24:01;;;;;;;5.40;3.20;;;;;;;5.39;66.04;99421.16;5022838;28;20274;-82
2021/12/20 01:26:34;;;;;;;4.00;3.40;;;;;;;5.42;66.89;99437.53;5035580;23;20227;-82
2021/12/20 01:29:01;;;;;;;3.83;3.30;;;;;;;5.18;68.24;99457.31;5010542;28;20269;-81
2021/12/20 01:31:35;;;;;;;4.00;3.60;;;;;;;5.25;68.51;99468.84;5023393;23;20223;-81
2021/12/20 01:34:06;;;;;;;4.90;4.10;;;;;;;5.22;68.71;99461.28;5009329;28;20254;-81
2021/12/20 01:36:43;;;;;;;4.77;3.80;;;;;;;5.09;72.63;99471.72;5004501;28;20525;-81
2021/12/20 01:39:10;;;;;;;4.60;3.83;;;;;;;4.98;70.40;99471.41;5006175;28;20230;-80
2021/12/20 01:41:44;;;;;;;4.80;3.87;;;;;;;4.96;70.79;99473.41;4985948;28;20251;-80
2021/12/20 01:44:14;;;;;;;4.80;4.10;;;;;;;4.99;70.29;99487.16;5002935;28;20218;-80
2021/12/20 01:46:45;;;;;;;5.00;4.20;;;;;;;4.91;70.75;99476.63;4985429;28;20231;-80
2021/12/20 01:49:15;;;;;;;5.80;4.60;;;;;;;4.82;70.62;99489.19;5008404;28;20215;-80
2021/12/20 01:52:10;;;;;;;5.07;4.03;;;;;;;4.95;70.69;99524.88;5003351;28;20310;-80
2021/12/20 01:54:42;;;;;;;5.23;3.80;;;;;;;4.76;71.29;99520.97;4994484;28;20666;-80
2021/12/20 01:57:10;;;;;;;4.90;4.37;;;;;;;4.39;74.24;99516.59;5003788;28;20322;-80
2021/12/20 01:59:46;;;;;;;6.60;5.17;;;;;;;4.30;75.41;99502.59;4995254;28;20251;-80
2021/12/20 02:02:16;;;;;;;6.20;5.37;;;;;;;4.12;77.46;99530.47;5006960;28;20301;-80
2021/12/20 02:04:48;;;;;;;7.00;4.87;;;;;;;3.78;79.22;99538.91;5007852;28;20219;-81
2021/12/20 02:07:48;;;;;;;5.10;4.00;;;;;;;3.39;81.42;99545.16;5007597;28;20228;-80
2021/12/20 02:10:22;;;;;;;5.50;4.70;;;;;;;3.19;85.35;99553.69;4993984;28;20239;-80
2021/12/20 02:12:51;;;;;;;5.43;3.90;;;;;;;2.99;88.04;99559.41;5011459;28;20187;-80
2021/12/20 02:15:23;;;;;;;4.80;4.00;;;;;;;3.18;88.74;99555.53;5008728;28;20565;-80
2021/12/20 02:17:53;;;;;;;4.10;3.70;;;;;;;2.88;88.99;99556.34;5005711;28;20212;-80
2021/12/20 02:20:29;;;;;;;4.03;3.50;;;;;;;2.73;88.93;99547.47;5003071;28;20631;-80
2021/12/20 02:22:59;;;;;;;3.60;2.90;;;;;;;2.82;89.11;99544.63;4994312;23;20326;-80
2021/12/20 02:25:36;;;;;;;3.60;2.93;;;;;;;2.81;87.52;99542.97;5003692;28;20231;-80
2021/12/20 02:28:14;;;;;;;2.20;2.00;;;;;;;2.67;87.77;99541.03;5018502;23;20228;-80
2021/12/20 02:38:53;;;;;;;1.77;1.40;;;;;;;2.74;85.79;99551.78;4989506;28;20278;-80
2021/12/20 02:41:30;;;;;;;1.40;1.10;;;;;;;2.73;85.48;99560.69;5009092;28;20234;-80
2021/12/20 02:44:03;;;;;;;1.47;1.30;;;;;;;2.72;85.15;99562.53;4989351;28;20601;-80
2021/12/20 02:49:08;;;;;;;1.30;1.20;;;;;;;2.55;85.06;99563.56;4990488;28;20322;-81
2021/12/20 02:51:36;;;;;;;1.17;1.07;;;;;;;2.61;85.54;99561.06;5005322;28;20258;-81
2021/12/20 02:54:06;;;;;;;1.10;1.00;;;;;;;2.37;86.05;99568.25;4988960;28;20219;-81
2021/12/20 02:56:35;;;;;;;1.47;1.13;;;;;;;2.56;86.51;99578.47;4991281;28;20223;-81
2021/12/20 02:59:07;;;;;;;1.20;1.10;;;;;;;2.51;85.92;99563.09;5004731;28;20311;-82
2021/12/20 03:01:40;;;;;;;1.07;0.97;;;;;;;2.56;85.74;99575.81;4992450;28;20294;-82
2021/12/20 03:04:07;;;;;;;1.27;0.80;;;;;;;2.45;86.31;99539.97;4973387;28;20241;-81
2021/12/20 03:06:42;;;;;;;1.10;1.00;;;;;;;2.50;86.41;99555.31;4984956;28;20231;-81
2021/12/20 03:09:13;;;;;;;1.23;0.80;;;;;;;2.47;86.29;99561.75;5003208;28;20226;-81
2021/12/20 03:11:41;;;;;;;0.97;0.97;;;;;;;2.44;86.22;99562.09;4987064;28;20223;-81
2021/12/20 03:16:46;;;;;;;1.87;1.20;;;;;;;2.39;86.40;99567.06;5007099;28;20257;-81
2021/12/20 03:19:14;;;;;;;1.40;1.30;;;;;;;2.45;86.94;99542.59;5007354;28;20237;-81
2021/12/20 03:21:42;;;;;;;2.20;1.80;;;;;;;2.57;86.40;99570.34;5007252;28;20262;-81
2021/12/20 03:24:13;;;;;;;1.73;1.40;;;;;;;2.59;85.68;99549.84;5025284;28;20258;-81
2021/12/20 03:26:39;;;;;;;1.67;1.23;;;;;;;2.71;84.59;99562.72;5025272;28;20579;-81
2021/12/20 03:29:08;;;;;;;1.37;0.90;;;;;;;2.76;83.61;99553.25;5006840;28;20237;-81
2021/12/20 03:31:38;;;;;;;1.43;0.73;;;;;;;2.81;81.21;99566.78;5005880;28;20235;-81
2021/12/20 03:34:05;;;;;;;0.70;0.70;;;;;;;2.82;80.39;99575.53;5005316;28;20234;-80
2021/12/20 03:36:33;;;;;;;0.90;0.70;;;;;;;2.90;79.44;99573.69;5006498;28;20222;-81
2021/12/20 03:39:20;;;;;;;3.47;0.90;;;;;;;3.16;79.28;99575.25;5005195;28;20231;-81
2021/12/20 03:41:47;;;;;;;0.97;0.50;;;;;;;3.25;79.82;99574.19;5022207;28;20231;-81
2021/12/20 03:44:14;;;;;;;0.30;0.30;;;;;;;3.14;80.44;99572.75;5019274;28;20243;-81
2021/12/20 03:46:44;;;;;;;0.80;0.47;;;;;;;3.26;80.55;99559.97;4988827;28;20234;-81
2021/12/20 03:49:11;;;;;;;0.40;0.40;;;;;;;3.19;80.53;99566.94;5005191;28;20226;-81
2021/12/20 03:51:38;;;;;;;0.50;0.50;;;;;;;3.31;80.58;99578.81;5004590;28;20245;-81
2021/12/20 03:54:06;;;;;;;0.50;0.50;;;;;;;3.29;80.71;99581.63;4987887;28;20313;-81
2021/12/20 03:56:33;;;;;;;1.20;0.50;;;;;;;3.35;80.13;99599.47;5005265;28;20230;-81
2021/12/20 03:59:01;;;;;;;8.30;3.10;;;;;;;3.30;80.70;99601.81;5021425;28;20249;-81
2021/12/20 04:01:29;;;;;;;1.03;0.80;;;;;;;3.34;80.45;99600.47;5003714;28;20219;-81
2021/12/20 04:04:00;;;;;;;1.17;1.00;;;;;;;3.35;79.49;99593.34;5022247;28;20218;-81
2021/12/20 04:06:28;;;;;;;1.93;0.80;;;;;;;3.37;79.95;99597.44;5021309;28;20218;-81
2021/12/20 04:08:55;;;;;;;1.17;0.90;;;;;;;3.33;80.34;99596.16;5020984;28;20266;-81
2021/12/20 04:11:24;;;;;;;0.57;0.57;;;;;;;3.32;80.59;99601.63;5021948;28;20234;-81
2021/12/20 04:13:51;;;;;;;0.70;0.60;;;;;;;3.28;80.18;99595.03;5003899;28;20250;-81
2021/12/20 04:16:21;;;;;;;0.70;0.70;;;;;;;3.38;80.18;99607.06;5004707;28;20673;-81
2021/12/20 04:18:51;;;;;;;0.87;0.73;;;;;;;3.42;80.20;99602.22;4988799;28;20276;-80
2021/12/20 04:21:18;;;;;;;1.33;0.80;;;;;;;3.28;80.69;99603.78;5004732;28;20190;-81
2021/12/20 04:23:45;;;;;;;2.10;1.13;;;;;;;3.37;80.65;99620.47;5004396;28;20225;-81
2021/12/20 04:26:12;;;;;;;1.33;1.20;;;;;;;3.34;80.74;99612.88;4990698;28;20211;-81
2021/12/20 04:28:40;;;;;;;1.43;1.30;;;;;;;3.31;81.15;99623.81;4972408;28;20233;-81
2021/12/20 04:31:09;;;;;;;2.40;1.60;;;;;;;3.32;81.17;99620.16;5006103;28;20231;-81
2021/12/20 04:33:38;;;;;;;2.37;1.63;;;;;;;3.28;81.27;99622.31;5022715;28;20637;-81
2021/12/20 04:36:11;;;;;;;1.73;1.50;;;;;;;3.40;81.36;99628.91;5023363;28;20238;-81
2021/12/20 04:38:38;;;;;;;3.47;1.43;;;;;;;3.38;81.61;99624.75;5022667;28;20219;-81
2021/12/20 04:41:08;;;;;;;2.17;1.60;;;;;;;3.29;81.46;99621.34;5024576;28;20234;-81
2021/12/20 04:43:36;;;;;;;2.33;1.60;;;;;;;3.30;82.00;99616.88;4990271;28;20231;-81
2021/12/20 04:46:03;;;;;;;2.63;1.67;;;;;;;3.31;81.92;99624.63;4988499;28;20254;-81
2021/12/20 04:48:32;;;;;;;2.00;1.63;;;;;;;3.28;82.11;99622.31;5028747;23;20208;-81
2021/12/20 04:51:01;;;;;;;2.57;1.57;;;;;;;3.23;82.09;99627.31;4984778;28;20251;-81
2021/12/20 04:53:27;;;;;;;2.87;1.73;;;;;;;3.29;81.32;99626.63;4985077;28;20224;-81
2021/12/20 04:55:56;;;;;;;1.77;1.67;;;;;;;3.29;81.08;99621.34;4975018;28;20235;-81
2021/12/20 04:58:23;;;;;;;2.00;1.80;;;;;;;3.22;81.02;99638.91;4965785;28;20256;-81
2021/12/20 05:00:50;;;;;;;3.00;1.87;;;;;;;3.25;80.76;99638.56;4963499;28;20261;-81
2021/12/20 05:03:17;;;;;;;2.47;1.80;;;;;;;3.13;81.22;99636.47;4965628;28;20214;-81
2021/12/20 05:05:44;;;;;;;1.70;1.60;;;;;;;3.16;80.47;99634.31;4965064;28;20232;-81
2021/12/20 05:08:12;;;;;;;3.17;1.90;;;;;;;3.26;80.48;99642.06;4947560;28;20235;-81
2021/12/20 05:10:41;;;;;;;1.93;1.70;;;;;;;3.18;79.39;99650.00;4983331;28;20232;-81
2021/12/20 05:13:13;;;;;;;3.77;1.80;;;;;;;3.22;78.81;99646.03;4952457;28;20255;-81
2021/12/20 05:15:47;;;;;;;2.03;1.40;;;;;;;3.13;78.64;99642.56;4966086;28;20203;-81
2021/12/20 05:18:14;;;;;;;2.13;1.50;;;;;;;3.14;78.38;99644.22;4964577;28;20542;-81
2021/12/20 05:20:41;;;;;;;3.00;1.70;;;;;;;3.02;78.55;99629.72;4979310;28;20319;-81
2021/12/20 05:23:09;;;;;;;2.40;1.90;;;;;;;3.11;78.50;99652.53;4965329;28;20220;-81
2021/12/20 05:25:38;;;;;;;3.77;1.67;;;;;;;3.13;77.60;99661.09;4983839;28;20318;-81
2021/12/20 05:28:05;;;;;;;2.27;1.30;;;;;;;3.07;76.99;99664.47;4970844;28;20227;-80
2021/12/20 05:30:32;;;;;;;3.03;1.40;;;;;;;3.04;77.11;99660.31;4954830;28;20216;-81
2021/12/20 05:32:59;;;;;;;3.07;1.40;;;;;;;2.92;77.22;99660.84;4969341;28;20316;-82
2021/12/20 05:35:27;;;;;;;1.73;1.23;;;;;;;2.91;76.66;99653.91;4971761;28;20298;-81
2021/12/20 05:37:54;;;;;;;2.00;1.40;;;;;;;2.98;76.27;99663.66;4954799;28;20235;-81
2021/12/20 05:40:22;;;;;;;2.70;1.80;;;;;;;2.87;76.44;99679.91;4986402;28;20212;-81
2021/12/20 05:42:49;;;;;;;5.20;1.90;;;;;;;2.90;77.15;99687.47;4953254;28;20263;-81
2021/12/20 05:45:18;;;;;;;3.97;1.70;;;;;;;3.02;76.02;99686.16;4984644;28;20319;-81
2021/12/20 05:47:47;;;;;;;3.63;1.40;;;;;;;2.87;76.99;99669.31;4985248;28;20640;-82
2021/12/20 05:50:17;;;;;;;2.80;1.50;;;;;;;2.83;76.65;99667.16;4985682;28;20283;-81
2021/12/20 05:52:47;;;;;;;1.60;1.50;;;;;;;2.84;77.15;99674.94;4968785;28;20228;-81
2021/12/20 05:55:14;;;;;;;2.60;1.50;;;;;;;2.92;76.41;99688.16;4968559;28;20184;-81
2021/12/20 05:57:41;;;;;;;1.77;1.17;;;;;;;3.00;76.36;99689.94;4966252;28;20323;-80
2021/12/20 06:00:14;;;;;;;4.43;1.83;;;;;;;2.92;76.10;99690.81;4968151;28;20511;-81
2021/12/20 06:02:48;;;;;;;2.47;1.40;;;;;;;3.06;75.77;99686.63;4968829;28;20224;-81
2021/12/20 06:05:17;;;;;;;3.50;1.20;;;;;;;2.92;75.78;99684.69;4967545;28;20231;-81
2021/12/20 06:07:47;;;;;;;2.87;1.50;;;;;;;2.98;75.83;99703.38;4967820;28;20307;-81
2021/12/20 06:10:17;;;;;;;3.40;1.30;;;;;;;2.97;75.70;99709.66;4966615;28;20271;-81
2021/12/20 06:12:44;;;;;;;1.57;1.27;;;;;;;2.93;75.11;99705.69;4983817;28;20275;-80
2021/12/20 06:15:12;;;;;;;3.13;1.43;;;;;;;2.89;75.44;99706.19;4967787;28;20234;-81
2021/12/20 06:17:41;;;;;;;4.70;1.20;;;;;;;2.78;75.06;99694.13;4967327;28;20693;-81
2021/12/20 06:20:13;;;;;;;4.50;1.20;;;;;;;2.84;75.27;99709.34;4951413;28;20259;-81
2021/12/20 06:22:40;;;;;;;2.87;1.07;;;;;;;2.83;74.05;99702.41;4951332;28;20232;-81
2021/12/20 06:25:07;;;;;;;2.17;0.90;;;;;;;2.91;74.01;99712.97;4967472;28;20248;-81
2021/12/20 06:27:35;;;;;;;3.53;1.47;;;;;;;2.90;74.55;99697.25;4966785;28;20571;-81
2021/12/20 06:30:03;;;;;;;1.90;1.20;;;;;;;2.92;73.95;99711.13;4983953;28;20557;-81
2021/12/20 06:32:30;;;;;;;1.67;1.00;;;;;;;2.87;74.11;99698.41;4982710;28;20232;-81
2021/12/20 06:34:57;;;;;;;2.93;1.30;;;;;;;2.81;74.59;99696.44;4965704;28;20268;-81
2021/12/20 06:37:24;;;;;;;2.93;1.37;;;;;;;2.87;74.32;99716.09;4964131;28;20238;-81
2021/12/20 06:39:50;;;;;;;1.80;1.20;;;;;;;2.75;74.56;99696.28;4949893;28;20248;-81
2021/12/20 06:42:17;;;;;;;3.13;1.20;;;;;;;2.96;73.18;99707.16;4981131;28;20259;-81
2021/12/20 06:44:44;;;;;;;4.77;1.30;;;;;;;2.98;72.56;99708.66;4965629;28;20246;-81
2021/12/20 06:47:11;;;;;;;1.90;1.00;;;;;;;2.93;72.63;99712.81;4950568;28;20239;-81
2021/12/20 06:49:39;;;;;;;2.67;1.30;;;;;;;2.89;72.75;99720.22;4964668;28;20228;-81
2021/12/20 06:52:07;;;;;;;3.60;1.57;;;;;;;2.91;72.96;99720.06;4950935;28;20234;-81
2021/12/20 06:54:36;;;;;;;1.53;1.20;;;;;;;3.01;73.33;99726.00;4965252;28;20306;-81
2021/12/20 06:57:04;;;;;;;3.00;1.53;;;;;;;3.09;73.20;99729.47;4965504;28;20224;-81
2021/12/20 06:59:31;;;;;;;1.70;1.30;;;;;;;3.04;73.72;99720.38;4967558;28;20218;-81
2021/12/20 07:01:58;;;;;;;2.87;1.63;;;;;;;2.98;73.79;99729.00;4948941;28;20560;-81
2021/12/20 07:04:26;;;;;;;3.30;1.90;;;;;;;2.82;74.13;99729.84;4981914;28;20224;-81
2021/12/20 07:06:53;;;;;;;2.70;1.83;;;;;;;3.01;73.63;99734.78;4950211;28;20228;-81
2021/12/20 07:09:21;;;;;;;3.00;2.00;;;;;;;2.87;73.93;99727.53;4967399;28;20232;-81
2021/12/20 07:11:48;;;;;;;2.03;1.83;;;;;;;3.01;73.80;99736.59;4989202;28;20180;-81
2021/12/20 07:14:16;;;;;;;2.57;1.60;;;;;;;2.99;73.42;99730.63;4967583;28;20235;-81
2021/12/20 07:16:43;;;;;;;2.80;1.57;;;;;;;3.00;72.87;99738.41;4984260;28;20228;-81
2021/12/20 07:19:10;;;;;;;4.43;1.53;;;;;;;2.94;71.61;99712.59;4983869;28;20260;-81
2021/12/20 07:21:36;;;;;;;2.60;1.50;;;;;;;3.12;71.47;99749.50;4965876;28;20231;-80
2021/12/20 07:24:05;;;;;;;3.97;1.77;;;;;;;3.01;72.43;99739.25;4966534;28;20258;-80
2021/12/20 07:26:32;;;;;;;1.87;1.43;;;;;;;3.05;71.47;99737.91;4983063;28;20315;-80
2021/12/20 07:29:00;;;;;;;2.43;1.53;;;;;;;3.23;70.80;99737.69;4965336;28;20250;-81
2021/12/20 07:31:28;;;;;;;2.73;1.37;;;;;;;3.22;70.00;99736.06;4965660;28;20238;-81
2021/12/20 07:33:58;;;;;;;2.27;1.23;;;;;;;3.25;69.84;99741.84;4983811;28;20216;-81
2021/12/20 07:36:26;;;;;;;1.73;1.30;;;;;;;3.41;69.32;99752.38;4966627;28;20552;-80
2021/12/20 07:38:56;;;;;;;2.33;1.30;;;;;;;3.34;68.85;99732.88;4975562;28;20231;-81
2021/12/20 07:41:37;;;;;;;2.87;1.30;;;;;;;3.21;69.35;99743.19;4968658;28;20619;-80
2021/12/20 07:44:04;;;;;;;2.40;1.60;;;;;;;3.28;69.09;99756.53;4949694;28;20228;-80
2021/12/20 07:46:37;;;;;;;2.47;1.40;;;;;;;3.37;68.47;99744.94;4979871;23;20224;-80
2021/12/20 07:49:05;;;;;;;3.20;1.50;;;;;;;3.30;68.53;99741.31;4976726;28;20250;-80
2021/12/20 07:51:33;;;;;;;2.77;1.20;;;;;;;3.39;67.63;99749.06;4990308;28;20255;-80
2021/12/20 07:54:17;;;;;;;3.40;1.10;;;;;;;3.32;67.33;99721.59;4993632;28;20247;-80
2021/12/20 07:56:45;;;;;;;3.03;1.10;;;;;;;3.41;66.16;99739.13;5007801;28;20203;-81
2021/12/20 07:59:14;;;;;;;3.00;1.40;;;;;;;3.53;66.03;99758.97;4992146;28;20246;-80
2021/12/20 08:01:41;;;;;;;3.33;1.10;;;;;;;3.52;66.23;99761.78;4985438;28;20243;-81
2021/12/20 08:04:08;;;;;;;2.27;1.30;;;;;;;3.54;65.85;99763.28;4983714;28;20231;-81
2021/12/20 08:06:35;;;;;;;2.80;1.43;;;;;;;3.64;66.01;99776.28;4984403;28;20219;-80
2021/12/20 08:09:04;;;;;;;2.20;1.30;;;;;;;3.68;66.30;99766.19;4967271;28;20239;-81
2021/12/20 08:11:33;;;;;;;1.30;1.10;;;;;;;3.57;65.45;99771.84;4951269;28;20322;-81
2021/12/20 08:14:00;;;;;;;1.70;1.10;;;;;;;3.67;65.03;99764.53;5001017;28;20295;-80
2021/12/20 08:16:28;;;;;;;2.40;1.20;;;;;;;3.72;64.07;99767.50;4984139;28;20227;-81
2021/12/20 08:18:55;;;;;;;2.53;1.10;;;;;;;3.76;64.18;99756.38;4983738;28;20233;-80
2021/12/20 08:21:22;;;;;;;1.90;1.10;;;;;;;3.76;64.13;99747.59;4993993;28;20215;-81
2021/12/20 08:23:57;;;;;;;1.83;1.10;;;;;;;3.89;63.42;99764.59;4986796;28;20321;-81
2021/12/20 08:26:26;;;;;;;2.07;1.20;;;;;;;3.89;62.87;99769.91;5004128;28;20234;-80
2021/12/20 08:28:56;;;;;;;1.63;1.00;;;;;;;3.96;62.95;99762.91;4988195;28;20269;-81
2021/12/20 08:31:25;;;;;;;2.53;1.13;;;;;;;3.95;62.92;99779.81;5003869;28;20650;-81
2021/12/20 08:33:55;;;;;;;3.47;1.20;;;;;;;4.00;62.76;99774.00;5004100;28;20236;-81
2021/12/20 08:36:25;;;;;;;1.27;0.97;;;;;;;3.92;61.49;99764.22;5021327;28;20230;-80
2021/12/20 08:38:53;;;;;;;3.37;1.20;;;;;;;4.09;62.29;99780.91;4987264;28;20254;-81
2021/12/20 08:41:21;;;;;;;2.17;0.90;;;;;;;4.15;61.72;99790.81;5003121;28;20231;-81
2021/12/20 08:43:48;;;;;;;2.23;1.20;;;;;;;4.08;61.91;99791.66;5020844;28;20221;-81
2021/12/20 08:46:16;;;;;;;1.60;0.90;;;;;;;4.16;62.13;99799.56;5017628;28;20227;-81
2021/12/20 08:48:43;;;;;;;3.20;1.10;;;;;;;4.24;62.09;99805.69;5019733;28;20576;-80
2021/12/20 08:51:12;;;;;;;2.47;1.30;;;;;;;4.13;62.25;99797.28;5002872;28;20234;-81
2021/12/20 08:53:43;;;;;;;2.87;1.20;;;;;;;4.29;62.78;99810.47;5003245;28;20598;-81
2021/12/20 08:56:11;;;;;;;3.07;1.20;;;;;;;4.18;62.40;99803.72;4989353;28;20215;-81
2021/12/20 08:58:38;;;;;;;2.67;0.97;;;;;;;4.20;61.59;99814.16;4983478;28;20639;-81
2021/12/20 09:01:07;;;;;;;2.03;1.00;;;;;;;4.18;61.69;99813.50;4965995;28;20334;-81
2021/12/20 09:03:34;;;;;;;3.77;1.10;;;;;;;4.26;61.83;99813.44;4996231;28;20237;-81
2021/12/20 09:06:02;;;;;;;2.43;1.00;;;;;;;4.13;62.33;99810.53;5004678;28;20650;-81
2021/12/20 09:08:30;;;;;;;2.07;1.30;;;;;;;4.32;61.77;99821.53;5003489;28;20237;-81
2021/12/20 09:10:57;;;;;;;2.83;1.40;;;;;;;4.19;61.86;99809.84;5002584;28;20277;-81
2021/12/20 09:13:25;;;;;;;1.90;1.00;;;;;;;4.24;61.50;99813.63;5002052;28;20650;-81
2021/12/20 09:15:54;;;;;;;1.20;0.90;;;;;;;4.19;60.75;99818.63;5002614;28;20286;-81
2021/12/20 09:18:28;;;;;;;1.77;1.00;;;;;;;4.21;60.85;99819.28;5001671;28;20253;-81
2021/12/20 09:20:56;;;;;;;1.80;1.10;;;;;;;4.27;60.96;99807.16;4998020;28;20306;-81
2021/12/20 09:23:26;;;;;;;2.40;1.00;;;;;;;4.26;60.13;99816.91;4991355;28;20304;-81
2021/12/20 09:25:54;;;;;;;2.10;0.90;;;;;;;4.23;60.39;99824.41;4999706;28;20235;-81
2021/12/20 09:28:21;;;;;;;3.07;1.00;;;;;;;4.20;60.78;99806.22;4982005;28;20239;-81
2021/12/20 09:30:48;;;;;;;3.40;1.10;;;;;;;4.31;60.41;99824.34;5001373;28;20314;-81
2021/12/20 09:33:28;;;;;;;4.60;1.20;;;;;;;4.32;61.32;99820.72;4987131;28;20593;-81
2021/12/20 09:35:55;;;;;;;1.63;0.90;;;;;;;4.27;59.47;99807.97;4985021;28;20254;-81
2021/12/20 09:38:28;;;;;;;2.13;1.20;;;;;;;4.15;59.78;99811.19;4992896;28;20223;-81
2021/12/20 09:43:43;;;;;;;1.50;1.07;;;;;;;4.30;60.66;99834.13;5000923;28;20222;-81
2021/12/20 09:46:16;;;;;;;3.50;1.00;;;;;;;4.41;59.50;99820.50;5004224;28;20222;-80
2021/12/20 09:48:49;;;;;;;3.07;1.07;;;;;;;4.33;59.43;99831.16;5001218;28;20231;-81
2021/12/20 09:51:24;;;;;;;2.77;1.17;;;;;;;4.36;59.33;99822.84;4998251;28;20223;-81
2021/12/20 09:53:51;;;;;;;2.80;1.20;;;;;;;4.28;59.17;99830.84;4987010;28;20630;-81
2021/12/20 09:56:19;;;;;;;3.57;1.20;;;;;;;4.44;59.23;99836.03;5014529;28;20241;-81
2021/12/20 09:58:47;;;;;;;3.17;1.03;;;;;;;4.53;58.88;99831.50;4984576;28;20225;-81
2021/12/20 10:01:19;;;;;;;2.60;1.10;;;;;;;4.61;58.08;99815.56;5001852;28;20235;-81
2021/12/20 10:03:46;;;;;;;2.33;1.00;;;;;;;4.60;58.40;99819.19;5000040;28;20254;-81
2021/12/20 10:06:14;;;;;;;1.47;0.90;;;;;;;4.72;58.28;99832.88;5000986;28;20234;-81
2021/12/20 10:08:50;;;;;;;2.00;0.87;;;;;;;4.67;57.56;99841.38;5001563;28;20257;-81
2021/12/20 10:11:25;;;;;;;2.30;1.10;;;;;;;4.61;58.15;99847.41;5002964;28;20241;-81
2021/12/20 10:14:21;;;;;;;2.07;0.90;;;;;;;4.65;58.46;99837.25;5004365;28;20574;-81
2021/12/20 10:17:02;;;;;;;4.07;1.20;;;;;;;4.81;58.24;99853.03;4993383;28;20219;-81
2021/12/20 10:19:31;;;;;;;4.00;1.33;;;;;;;4.79;57.61;99852.41;4986931;28;20227;-81
2021/12/20 10:21:58;;;;;;;2.17;1.03;;;;;;;4.81;57.07;99853.03;4986908;28;20257;-81
2021/12/20 10:24:30;;;;;;;5.13;1.20;;;;;;;4.74;58.14;99844.16;5019643;28;20564;-81
2021/12/20 10:26:57;;;;;;;5.67;1.10;;;;;;;4.82;57.73;99846.75;5003825;28;20222;-81
2021/12/20 10:29:26;;;;;;;3.90;0.97;;;;;;;4.87;57.56;99845.22;5004120;28;20721;-82
2021/12/20 10:31:56;;;;;;;3.17;1.17;;;;;;;4.90;57.35;99838.69;5004717;28;20226;-81
2021/12/20 10:34:33;;;;;;;1.67;1.10;;;;;;;5.01;58.56;99848.09;4986816;28;20215;-81
2021/12/20 10:37:02;;;;;;;4.60;1.40;;;;;;;5.02;58.16;99836.47;5004276;28;20230;-82
2021/12/20 10:39:34;;;;;;;3.13;1.10;;;;;;;5.19;58.54;99843.28;5004118;28;20280;-82
2021/12/20 10:42:15;;;;;;;3.50;1.10;;;;;;;5.27;57.68;99844.03;5004104;28;20238;-82
2021/12/20 10:44:42;;;;;;;4.10;1.10;;;;;;;5.32;58.13;99854.94;5002269;28;20226;-82
2021/12/20 10:47:23;;;;;;;2.53;1.00;;;;;;;5.25;57.42;99823.97;5002669;28;20597;-82
2021/12/20 10:49:51;;;;;;;5.77;1.30;;;;;;;5.34;57.02;99844.16;4987158;28;20230;-82
2021/12/20 10:52:28;;;;;;;2.90;1.20;;;;;;;5.33;56.74;99834.50;5020165;28;20254;-81
2021/12/20 10:54:57;;;;;;;3.07;1.00;;;;;;;5.45;56.63;99833.09;4979141;28;20234;-82
2021/12/20 10:57:26;;;;;;;2.40;1.20;;;;;;;5.51;55.93;99840.31;5020559;28;20567;-82
2021/12/20 11:00:13;;;;;;;3.13;1.10;;;;;;;5.27;56.55;99838.72;5003478;28;20234;-81
2021/12/20 11:03:18;;;;;;;2.83;1.10;;;;;;;5.15;56.37;99834.03;5003599;28;20290;-82
2021/12/20 11:06:03;;;;;;;2.07;1.20;;;;;;;5.32;57.17;99830.19;5005255;28;20285;-81
2021/12/20 11:11:47;;;;;;;1.40;1.00;;;;;;;5.24;55.97;99840.91;5031378;28;20282;-82
2021/12/20 11:14:21;;;;;;;2.50;1.23;;;;;;;5.57;56.07;99838.75;5015972;28;20234;-81
2021/12/20 11:16:53;;;;;;;1.83;1.30;;;;;;;5.62;56.63;99826.59;5039272;23;20219;-81
2021/12/20 11:19:54;;;;;;;2.23;1.30;;;;;;;5.98;55.37;99850.63;5002220;28;20191;-82
2021/12/20 11:23:11;;;;;;;4.23;1.30;;;;;;;5.82;55.41;99845.47;5029044;23;20224;-82
2021/12/20 11:26:01;;;;;;;2.50;1.27;;;;;;;6.31;54.11;99843.03;4991756;28;20306;-81
2021/12/20 11:28:31;;;;;;;3.63;1.73;;;;;;;6.12;54.41;99843.63;4991897;28;20234;-82
2021/12/20 11:31:42;;;;;;;3.93;1.40;;;;;;;6.11;53.97;99836.69;4992486;28;20255;-82
2021/12/20 11:34:28;;;;;;;3.20;1.40;;;;;;;5.91;54.20;99830.28;4956376;29;20296;-82
2021/12/20 11:37:05;;;;;;;2.07;1.30;;;;;;;6.00;53.97;99843.28;4982623;28;20216;-81
2021/12/20 11:39:37;;;;;;;3.17;1.30;;;;;;;5.95;54.44;99835.03;4976630;28;20216;-81
2021/12/20 11:42:08;;;;;;;3.00;1.37;;;;;;;5.94;54.49;99813.94;5025352;23;20233;-82
2021/12/20 11:45:04;;;;;;;2.93;1.40;;;;;;;5.97;53.90;99838.31;5030656;28;20227;-82
2021/12/20 11:48:05;;;;;;;3.60;1.30;;;;;;;6.13;54.18;99830.16;5031798;28;20206;-81
2021/12/20 11:50:37;;;;;;;2.10;1.20;;;;;;;5.91;53.99;99833.75;5030365;28;20246;-82
2021/12/20 11:53:22;;;;;;;2.20;1.40;;;;;;;5.82;54.20;99834.84;5015154;28;20269;-81
2021/12/20 11:55:55;;;;;;;3.43;1.07;;;;;;;5.93;53.10;99831.72;5031024;28;20234;-81
2021/12/20 11:58:39;;;;;;;2.07;1.10;;;;;;;5.62;53.06;99847.00;5036051;23;20229;-81
2021/12/20 12:01:21;;;;;;;2.63;0.90;;;;;;;5.71;51.74;99832.63;5031071;28;20183;-81
2021/12/20 12:04:07;;;;;;;1.20;0.87;;;;;;;5.61;51.61;99835.56;5030819;28;20245;-81
2021/12/20 12:06:42;;;;;;;2.13;1.23;;;;;;;5.35;51.90;99810.44;5030869;28;20638;-81
2021/12/20 12:09:19;;;;;;;1.80;1.03;;;;;;;5.54;51.98;99825.84;5030409;28;20189;-81
2021/12/20 12:12:25;;;;;;;2.93;1.50;;;;;;;5.46;52.91;99837.38;5013844;28;20217;-82
2021/12/20 12:15:31;;;;;;;5.37;1.60;;;;;;;5.64;53.11;99829.91;5029714;28;20294;-81
2021/12/20 12:18:47;;;;;;;3.20;1.07;;;;;;;5.76;52.62;99819.63;5030434;28;20218;-81
2021/12/20 12:21:42;;;;;;;2.70;1.00;;;;;;;5.70;53.05;99841.59;4997583;28;20242;-81
2021/12/20 12:24:45;;;;;;;3.00;1.60;;;;;;;5.62;53.57;99834.56;5017095;23;20234;-82